Alpine Trader — 9HVW9 — position and weather

sailwx.info

Track history (hours):
 
Tides and Currents Weather Stations Pressure Air Temp Water Temp Dewpoint Dewpoint Depression Visibility Wind Speed Wind Dir Waves Ship Positions

Alpine Trader

Last reported at 2014-Jul-06 21:33 UTC. Time now 2014-Jul-25 09:04 UTC.
Position N 31°22' E 032°19'.
Warning: this ship's position is 18 days out of date.

Length 190 m; draft 10.8 m.

Type: Cargo ship. MMSI: 249874000.

Date/timePositionNaut miles runAvg speedWind from/ knotsBaromVisibWave heightAir tempDewpointWater temp
2014-Jul-06 21:33N 31°22' E 032°19'0 0.0
2014-Jul-06 18:32N 31°22' E 032°19'104 5.2
2014-Jul-05 22:33N 32°06' E 030°28'  
2014-Jul-03 03:20N 35°30' E 016°25'3611.2
2014-Jul-03 00:07N 35°40' E 015°42'2011.4
2014-Jul-02 22:21N 35°45' E 015°19'911.6
2014-Jul-02 21:33N 35°48' E 015°08'1111.4
2014-Jul-02 20:33N 35°51' E 014°54'8 8.3
2014-Jul-02 19:33N 35°54' E 014°45'0 0.2
2014-Jul-02 18:30N 35°54' E 014°45'0 0.0
2014-Jul-02 17:33N 35°54' E 014°45'0 0.1
2014-Jul-02 16:33N 35°54' E 014°44'0 0.0
2014-Jul-02 15:33N 35°54' E 014°44'0 0.0
2014-Jul-02 14:33N 35°54' E 014°44'0 0.1
2014-Jul-02 13:33N 35°54' E 014°44'0 0.1
2014-Jul-02 12:33N 35°54' E 014°44'0 0.1
2014-Jul-02 11:21N 35°54' E 014°44'0 0.0
2014-Jul-02 10:33N 35°54' E 014°44'0 0.0
2014-Jul-02 09:12N 35°54' E 014°44'1 1.1
2014-Jul-02 08:33N 35°53' E 014°45'5 4.7
2014-Jul-02 07:33N 35°57' E 014°42'1111.1
2014-Jul-02 06:33N 36°08' E 014°36'1210.8
2014-Jul-02 05:29N 36°17' E 014°27'1011.0
2014-Jul-02 04:33N 36°21' E 014°15'1110.9
2014-Jul-02 03:33N 36°25' E 014°03'1111.2
2014-Jul-02 02:33N 36°29' E 013°50'1111.1
2014-Jul-02 01:33N 36°33' E 013°37'1111.0
2014-Jul-02 00:31N 36°37' E 013°24'1111.2
2014-Jul-01 23:33N 36°41' E 013°11'1311.4
2014-Jul-01 22:23N 36°46' E 012°56'26 6.8
2014-Jul-01 18:33N 36°56' E 012°26'3511.5
2014-Jul-01 15:33N 37°09' E 011°46'1111.4
2014-Jul-01 14:33N 37°14' E 011°32'1111.6
2014-Jul-01 13:33N 37°18' E 011°19'1211.8
2014-Jul-01 12:33N 37°23' E 011°06'1211.7
2014-Jul-01 11:33N 37°26' E 010°51'1212.1
2014-Jul-01 10:33N 37°29' E 010°37'  
2014-Jun-28 18:03N 35°59' W 005°19'  
Track history (hours):
 
Tides and Currents Weather Stations Pressure Air Temp Water Temp Dewpoint Dewpoint Depression Visibility Wind Speed Wind Dir Waves Ship Positions

Alpine Trader

Last reported at 2014-Jul-06 21:33 UTC. Time now 2014-Jul-25 09:04 UTC.
Position N 31°22' E 032°19'.
Warning: this ship's position is 18 days out of date.

Length 190 m; draft 10.8 m.

Type: Cargo ship. MMSI: 249874000.

Date/timePositionNaut miles runAvg speedWind from/ knotsBaromVisibWave heightAir tempDewpointWater temp
2014-Jul-06 21:33N 31°22' E 032°19'0 0.0
2014-Jul-06 18:32N 31°22' E 032°19'104 5.2
2014-Jul-05 22:33N 32°06' E 030°28'  
2014-Jul-03 03:20N 35°30' E 016°25'3611.2
2014-Jul-03 00:07N 35°40' E 015°42'2011.4
2014-Jul-02 22:21N 35°45' E 015°19'911.6
2014-Jul-02 21:33N 35°48' E 015°08'1111.4
2014-Jul-02 20:33N 35°51' E 014°54'8 8.3
2014-Jul-02 19:33N 35°54' E 014°45'0 0.2
2014-Jul-02 18:30N 35°54' E 014°45'0 0.0
2014-Jul-02 17:33N 35°54' E 014°45'0 0.1
2014-Jul-02 16:33N 35°54' E 014°44'0 0.0
2014-Jul-02 15:33N 35°54' E 014°44'0 0.0
2014-Jul-02 14:33N 35°54' E 014°44'0 0.1
2014-Jul-02 13:33N 35°54' E 014°44'0 0.1
2014-Jul-02 12:33N 35°54' E 014°44'0 0.1
2014-Jul-02 11:21N 35°54' E 014°44'0 0.0
2014-Jul-02 10:33N 35°54' E 014°44'0 0.0
2014-Jul-02 09:12N 35°54' E 014°44'1 1.1
2014-Jul-02 08:33N 35°53' E 014°45'5 4.7
2014-Jul-02 07:33N 35°57' E 014°42'1111.1
2014-Jul-02 06:33N 36°08' E 014°36'1210.8
2014-Jul-02 05:29N 36°17' E 014°27'1011.0
2014-Jul-02 04:33N 36°21' E 014°15'1110.9
2014-Jul-02 03:33N 36°25' E 014°03'1111.2
2014-Jul-02 02:33N 36°29' E 013°50'1111.1
2014-Jul-02 01:33N 36°33' E 013°37'1111.0
2014-Jul-02 00:31N 36°37' E 013°24'1111.2
2014-Jul-01 23:33N 36°41' E 013°11'1311.4
2014-Jul-01 22:23N 36°46' E 012°56'26 6.8
2014-Jul-01 18:33N 36°56' E 012°26'3511.5
2014-Jul-01 15:33N 37°09' E 011°46'1111.4
2014-Jul-01 14:33N 37°14' E 011°32'1111.6
2014-Jul-01 13:33N 37°18' E 011°19'1211.8
2014-Jul-01 12:33N 37°23' E 011°06'1211.7
2014-Jul-01 11:33N 37°26' E 010°51'1212.1
2014-Jul-01 10:33N 37°29' E 010°37'  
2014-Jun-28 18:03N 35°59' W 005°19'  

Dump ship's entire track history